Time;durP1;ratioP1;P1;durP2;ratioP2;P2;SDS_P1;SDS_P2;PMS_P1;PMS_P2;Temp;Humidity;BMP_temperature;BMP_pressure;BME280_temperature;BME280_humidity;BME280_pressure;Samples;Min_cycle;Max_cycle;Signal;HPM_P1;HPM_P2
2023/04/04 00:01:39;;;;;;;3.17;2.50;;;4.20;39.40;;;;;;6249915;28;20459;-61
2023/04/04 00:04:42;;;;;;;2.93;2.30;;;4.20;39.40;;;;;;6248639;28;20482;-61
2023/04/04 00:07:48;;;;;;;5.50;2.77;;;4.20;39.60;;;;;;6255038;28;20510;-61
2023/04/04 00:10:56;;;;;;;5.63;3.10;;;4.10;39.30;;;;;;6268327;28;20481;-62
2023/04/04 00:14:01;;;;;;;2.50;2.30;;;4.10;39.40;;;;;;6257059;28;20464;-61
2023/04/04 00:17:04;;;;;;;2.80;2.60;;;4.10;39.50;;;;;;6265352;28;20799;-61
2023/04/04 00:20:08;;;;;;;2.53;2.40;;;4.00;39.50;;;;;;6257590;28;20808;-61
2023/04/04 00:23:12;;;;;;;2.53;2.33;;;4.00;39.70;;;;;;6236520;28;20873;-61
2023/04/04 00:26:16;;;;;;;6.03;2.40;;;4.00;39.60;;;;;;6249470;28;20479;-61
2023/04/04 00:29:19;;;;;;;2.77;2.57;;;4.00;40.00;;;;;;6249754;28;20470;-61
2023/04/04 00:32:22;;;;;;;3.27;2.40;;;4.00;40.60;;;;;;6249309;28;20463;-61
2023/04/04 00:35:26;;;;;;;3.37;3.00;;;3.90;40.60;;;;;;6249689;28;20618;-61
2023/04/04 00:38:30;;;;;;;2.80;2.30;;;3.90;40.70;;;;;;6249900;28;20498;-61
2023/04/04 00:41:34;;;;;;;5.40;2.53;;;3.90;41.00;;;;;;6249732;28;20478;-61
2023/04/04 00:44:38;;;;;;;3.70;2.50;;;3.90;41.20;;;;;;6249471;28;20799;-63
2023/04/04 00:47:43;;;;;;;5.70;2.43;;;3.90;41.20;;;;;;6248506;28;20479;-62
2023/04/04 00:50:46;;;;;;;2.63;2.20;;;3.80;41.10;;;;;;6249299;28;20494;-62
2023/04/04 00:53:52;;;;;;;2.50;2.30;;;3.80;41.20;;;;;;6249527;28;20482;-62
2023/04/04 00:56:55;;;;;;;2.43;2.33;;;3.80;41.40;;;;;;6248235;28;20504;-62
2023/04/04 01:00:01;;;;;;;3.50;2.40;;;3.70;41.50;;;;;;6249239;28;20471;-62
2023/04/04 01:03:06;;;;;;;3.40;3.03;;;3.70;41.20;;;;;;6248990;28;20478;-62
2023/04/04 01:06:10;;;;;;;3.00;2.63;;;3.70;41.80;;;;;;6249033;28;20470;-61
2023/04/04 01:09:15;;;;;;;3.40;3.00;;;3.60;42.30;;;;;;6248900;28;20793;-61
2023/04/04 01:12:18;;;;;;;3.23;2.77;;;3.60;42.90;;;;;;6253356;28;20506;-62
2023/04/04 01:15:22;;;;;;;3.33;2.77;;;3.50;43.20;;;;;;6253032;28;20469;-61
2023/04/04 01:18:26;;;;;;;3.53;2.93;;;3.40;43.20;;;;;;6253656;28;20446;-61
2023/04/04 01:21:30;;;;;;;3.27;3.00;;;3.40;43.20;;;;;;6253802;28;20470;-62
2023/04/04 01:24:36;;;;;;;3.90;3.20;;;3.40;43.90;;;;;;6253897;28;20589;-61
2023/04/04 01:27:40;;;;;;;3.60;3.30;;;3.40;44.20;;;;;;6253624;28;20489;-62
2023/04/04 01:30:45;;;;;;;4.20;2.67;;;3.30;44.40;;;;;;6253383;28;20474;-61
2023/04/04 01:33:55;;;;;;;3.40;3.03;;;3.30;44.50;;;;;;6253793;28;20497;-61
2023/04/04 01:37:05;;;;;;;2.90;2.60;;;3.30;43.90;;;;;;6253291;28;20483;-61
2023/04/04 01:40:16;;;;;;;3.30;3.00;;;3.30;43.90;;;;;;6253125;28;20471;-62
2023/04/04 01:43:21;;;;;;;3.37;2.90;;;3.30;44.10;;;;;;6253315;28;20475;-61
2023/04/04 01:46:24;;;;;;;3.13;2.93;;;3.30;44.40;;;;;;6253228;28;20481;-62
2023/04/04 01:49:27;;;;;;;2.70;2.50;;;3.20;43.80;;;;;;6252932;28;20467;-61
2023/04/04 01:52:31;;;;;;;3.30;3.03;;;3.20;44.10;;;;;;6253176;28;20567;-61
2023/04/04 01:55:34;;;;;;;3.00;2.60;;;3.20;43.90;;;;;;6252314;28;20474;-62
2023/04/04 01:58:38;;;;;;;4.27;3.17;;;3.20;44.10;;;;;;6253033;28;20478;-61
2023/04/04 02:01:42;;;;;;;3.47;3.17;;;3.10;44.10;;;;;;6252849;28;20497;-61
2023/04/04 02:04:46;;;;;;;3.30;3.00;;;3.20;44.50;;;;;;6252729;28;20474;-61
2023/04/04 02:07:50;;;;;;;4.73;4.43;;;3.10;44.10;;;;;;6252620;28;20482;-61
2023/04/04 02:10:53;;;;;;;4.80;3.10;;;3.10;44.10;;;;;;6252840;28;20487;-61
2023/04/04 02:13:57;;;;;;;3.10;2.80;;;3.10;44.10;;;;;;6252036;28;20486;-61
2023/04/04 02:17:00;;;;;;;3.60;2.80;;;3.20;43.80;;;;;;6252575;28;20475;-61
2023/04/04 02:20:04;;;;;;;3.07;2.87;;;3.10;43.50;;;;;;6252052;28;20475;-61
2023/04/04 02:23:08;;;;;;;3.00;2.70;;;3.10;43.30;;;;;;6250985;28;20470;-61
2023/04/04 02:26:11;;;;;;;4.17;3.77;;;3.10;43.20;;;;;;6251868;28;20487;-61
2023/04/04 02:29:15;;;;;;;4.03;3.60;;;3.10;43.10;;;;;;6242909;28;20577;-61
2023/04/04 02:32:19;;;;;;;5.70;3.33;;;3.10;43.10;;;;;;6251781;28;20487;-61
2023/04/04 02:35:22;;;;;;;3.10;2.80;;;3.10;42.80;;;;;;6251368;28;20491;-61
2023/04/04 02:38:25;;;;;;;3.40;3.07;;;3.10;43.10;;;;;;6251600;28;20481;-60
2023/04/04 02:41:28;;;;;;;4.17;3.20;;;3.10;43.20;;;;;;6251345;28;20488;-61
2023/04/04 02:44:33;;;;;;;3.57;3.20;;;3.10;43.20;;;;;;6251771;28;20486;-60
2023/04/04 02:47:36;;;;;;;3.90;2.83;;;3.10;43.40;;;;;;6251378;28;20987;-60
2023/04/04 02:50:39;;;;;;;3.23;2.93;;;3.00;43.10;;;;;;6251364;28;20471;-61
2023/04/04 02:53:43;;;;;;;3.23;3.03;;;3.00;43.20;;;;;;6251677;28;20482;-60
2023/04/04 02:56:46;;;;;;;3.80;3.50;;;3.10;43.00;;;;;;6251386;28;20475;-60
2023/04/04 02:59:51;;;;;;;3.23;2.93;;;3.00;42.70;;;;;;6251342;28;20970;-61
2023/04/04 03:02:55;;;;;;;2.83;2.53;;;3.00;42.40;;;;;;6251328;28;20545;-60
2023/04/04 03:05:59;;;;;;;3.50;2.70;;;3.10;42.20;;;;;;6251275;28;20554;-61
2023/04/04 03:09:03;;;;;;;2.97;2.70;;;3.10;42.10;;;;;;6250862;28;20486;-61
2023/04/04 03:12:07;;;;;;;3.47;3.17;;;3.00;42.10;;;;;;6275607;28;20482;-60
2023/04/04 03:15:13;;;;;;;3.43;2.90;;;3.00;42.30;;;;;;6275009;28;20466;-61
2023/04/04 03:18:16;;;;;;;3.77;3.37;;;3.00;42.50;;;;;;6252216;28;20756;-61
2023/04/04 03:21:19;;;;;;;3.40;2.90;;;3.00;42.80;;;;;;6250975;28;20895;-61
2023/04/04 03:24:23;;;;;;;3.83;3.40;;;3.00;43.10;;;;;;6250749;28;20774;-61
2023/04/04 03:27:26;;;;;;;3.27;2.97;;;3.00;43.10;;;;;;6250550;28;20474;-61
2023/04/04 03:30:30;;;;;;;2.97;2.73;;;3.00;42.90;;;;;;6246221;28;21347;-61
2023/04/04 03:33:36;;;;;;;2.97;2.23;;;3.00;43.10;;;;;;6250048;28;20803;-61
2023/04/04 03:36:39;;;;;;;3.07;2.77;;;3.00;43.20;;;;;;6250671;28;20475;-61
2023/04/04 03:39:43;;;;;;;3.07;2.77;;;2.90;43.30;;;;;;6250196;28;20471;-62
2023/04/04 03:42:46;;;;;;;3.30;2.80;;;3.00;43.20;;;;;;6249862;28;20486;-62
2023/04/04 03:45:50;;;;;;;2.93;2.73;;;2.90;42.40;;;;;;6249878;28;20479;-61
2023/04/04 03:48:53;;;;;;;3.43;3.13;;;2.90;42.70;;;;;;6249473;28;20481;-61
2023/04/04 03:51:56;;;;;;;4.10;3.43;;;2.90;42.30;;;;;;6249924;28;20471;-62
2023/04/04 03:55:00;;;;;;;3.73;3.43;;;2.90;42.20;;;;;;6249496;28;20475;-61
2023/04/04 03:58:03;;;;;;;3.37;3.10;;;2.90;42.20;;;;;;6250022;28;20478;-61
2023/04/04 04:01:08;;;;;;;3.30;3.00;;;2.90;42.10;;;;;;6249927;28;20475;-61
2023/04/04 04:04:11;;;;;;;3.10;2.80;;;2.80;41.80;;;;;;6251242;28;20474;-61
2023/04/04 04:07:14;;;;;;;3.47;2.93;;;2.90;42.00;;;;;;6250369;28;20676;-60
2023/04/04 04:10:17;;;;;;;4.27;3.03;;;2.90;41.30;;;;;;6250192;28;20467;-61
2023/04/04 04:13:21;;;;;;;3.80;2.87;;;2.80;41.30;;;;;;6249630;28;20475;-61
2023/04/04 04:16:26;;;;;;;5.43;2.90;;;2.90;41.60;;;;;;6250176;28;20481;-61
2023/04/04 04:19:30;;;;;;;3.03;2.80;;;2.90;41.70;;;;;;6249630;28;20553;-61
2023/04/04 04:22:33;;;;;;;6.23;3.40;;;2.90;42.10;;;;;;6250713;28;20467;-60
2023/04/04 04:25:36;;;;;;;3.87;3.20;;;2.80;42.00;;;;;;6249831;28;20475;-60
2023/04/04 04:28:39;;;;;;;6.57;3.57;;;2.80;42.10;;;;;;6249946;28;20471;-61
2023/04/04 04:31:44;;;;;;;4.97;3.53;;;2.90;42.70;;;;;;6249569;28;20793;-61
2023/04/04 04:34:47;;;;;;;3.00;2.80;;;2.80;43.00;;;;;;6249528;28;20481;-61
2023/04/04 04:37:51;;;;;;;5.90;3.77;;;2.80;43.00;;;;;;6249685;28;20517;-61
2023/04/04 04:40:54;;;;;;;4.40;3.63;;;2.80;43.10;;;;;;6249586;28;20472;-61
2023/04/04 04:43:57;;;;;;;3.47;3.23;;;2.90;43.10;;;;;;6249186;28;20774;-61
2023/04/04 04:47:03;;;;;;;5.00;4.60;;;2.80;42.90;;;;;;6252466;28;20498;-61
2023/04/04 04:50:08;;;;;;;4.50;3.70;;;2.80;43.10;;;;;;6254138;28;20482;-62
2023/04/04 04:53:11;;;;;;;4.07;3.70;;;2.90;43.80;;;;;;6254243;28;20489;-61
2023/04/04 04:56:14;;;;;;;5.00;4.03;;;2.80;44.00;;;;;;6254464;28;20478;-61
2023/04/04 04:59:17;;;;;;;9.37;5.47;;;2.80;44.00;;;;;;6254715;28;20485;-61
2023/04/04 05:02:22;;;;;;;6.63;5.30;;;2.70;44.10;;;;;;6254623;28;20783;-60
2023/04/04 05:05:25;;;;;;;7.10;5.00;;;2.80;44.30;;;;;;6254018;28;20470;-61
2023/04/04 05:08:29;;;;;;;6.33;5.73;;;2.80;44.80;;;;;;6253935;28;20482;-62
2023/04/04 05:11:32;;;;;;;11.40;9.50;;;2.80;44.90;;;;;;6253826;28;20478;-61
2023/04/04 05:14:36;;;;;;;6.63;6.00;;;2.80;44.70;;;;;;6253916;28;20477;-61
2023/04/04 05:17:40;;;;;;;9.63;5.83;;;2.80;44.70;;;;;;6253530;28;20479;-61
2023/04/04 05:20:44;;;;;;;5.43;4.93;;;2.80;44.50;;;;;;6253485;28;20609;-61
2023/04/04 05:23:47;;;;;;;9.63;7.87;;;2.80;44.60;;;;;;6253362;28;20566;-61
2023/04/04 05:26:50;;;;;;;8.43;6.13;;;2.90;44.80;;;;;;6253726;28;20481;-61
2023/04/04 05:29:53;;;;;;;5.63;4.83;;;2.90;45.20;;;;;;6253778;28;20474;-60
2023/04/04 05:32:58;;;;;;;4.97;3.83;;;2.90;45.40;;;;;;6253453;28;20495;-60
2023/04/04 05:36:01;;;;;;;7.53;4.20;;;3.00;45.30;;;;;;6253132;28;20589;-60
2023/04/04 05:39:05;;;;;;;5.73;4.60;;;3.10;44.90;;;;;;6253274;28;20554;-60
2023/04/04 05:42:08;;;;;;;5.40;4.43;;;3.00;44.90;;;;;;6244402;28;20482;-61
2023/04/04 05:45:11;;;;;;;5.67;3.77;;;3.10;45.20;;;;;;6277626;28;20462;-61
2023/04/04 05:48:16;;;;;;;6.70;5.03;;;3.30;45.30;;;;;;6255834;28;20442;-61
2023/04/04 05:51:19;;;;;;;9.70;4.03;;;3.40;44.60;;;;;;6284903;28;20446;-61
2023/04/04 05:54:22;;;;;;;5.07;4.50;;;3.40;44.10;;;;;;6258327;28;20486;-61
2023/04/04 05:57:25;;;;;;;5.53;4.20;;;3.40;43.50;;;;;;6255505;28;20466;-61
2023/04/04 06:00:29;;;;;;;6.87;3.50;;;3.50;43.70;;;;;;6254670;28;20486;-61
2023/04/04 06:03:34;;;;;;;4.67;4.17;;;3.60;41.50;;;;;;6252678;28;20474;-61
2023/04/04 06:06:37;;;;;;;3.70;3.40;;;3.70;41.10;;;;;;6252353;28;20908;-61
2023/04/04 06:09:41;;;;;;;4.30;3.60;;;3.80;41.00;;;;;;6252354;28;20478;-62
2023/04/04 06:12:44;;;;;;;5.80;3.40;;;3.90;40.90;;;;;;6252601;28;20463;-62
2023/04/04 06:15:47;;;;;;;4.00;3.60;;;4.00;40.70;;;;;;6252292;28;20479;-61
2023/04/04 06:18:52;;;;;;;3.50;3.13;;;4.10;39.90;;;;;;6252222;28;20467;-61
2023/04/04 06:21:55;;;;;;;4.30;3.40;;;4.20;39.10;;;;;;6252242;28;20486;-61
2023/04/04 06:24:58;;;;;;;2.60;2.40;;;4.40;38.40;;;;;;6251556;28;21009;-61
2023/04/04 06:28:02;;;;;;;3.47;3.17;;;4.70;37.50;;;;;;6252314;28;20470;-60
2023/04/04 06:31:07;;;;;;;3.33;2.70;;;5.30;37.10;;;;;;6252307;28;20471;-60
2023/04/04 06:34:12;;;;;;;2.77;2.53;;;6.20;34.90;;;;;;6251677;28;20585;-60
2023/04/04 06:37:15;;;;;;;2.50;2.30;;;7.60;33.40;;;;;;6251885;28;20493;-60
2023/04/04 06:40:18;;;;;;;2.77;2.30;;;8.70;30.70;;;;;;6251779;28;20941;-60
2023/04/04 06:43:21;;;;;;;2.30;2.10;;;9.60;29.70;;;;;;6247797;28;20501;-60
2023/04/04 06:46:25;;;;;;;2.90;2.53;;;10.40;27.60;;;;;;6251928;28;20811;-61
2023/04/04 06:49:30;;;;;;;2.73;2.03;;;10.90;27.10;;;;;;6251644;28;20475;-61
2023/04/04 06:52:33;;;;;;;2.30;2.10;;;11.90;26.60;;;;;;6251446;28;20812;-61
2023/04/04 06:55:37;;;;;;;3.17;2.27;;;12.90;25.60;;;;;;6251314;28;20471;-61
2023/04/04 06:58:40;;;;;;;2.20;2.10;;;13.00;24.30;;;;;;6251226;28;20479;-61
2023/04/04 07:01:44;;;;;;;2.60;2.40;;;12.90;24.40;;;;;;6251317;28;20475;-61
2023/04/04 07:04:48;;;;;;;3.83;2.70;;;13.60;24.50;;;;;;6250948;28;20784;-61
2023/04/04 07:07:53;;;;;;;2.43;2.23;;;15.20;23.80;;;;;;6251554;28;20482;-61
2023/04/04 07:10:56;;;;;;;2.60;2.40;;;15.80;22.70;;;;;;6250669;28;20467;-62
2023/04/04 07:14:00;;;;;;;3.10;2.80;;;16.30;21.70;;;;;;6251016;28;20487;-61
2023/04/04 07:17:03;;;;;;;3.13;1.90;;;17.60;21.20;;;;;;6251331;28;20482;-61
2023/04/04 07:20:25;;;;;;;3.23;2.40;;;18.90;20.20;;;;;;6251013;28;20493;-61
2023/04/04 07:23:29;;;;;;;2.40;2.20;;;19.80;19.50;;;;;;6251067;28;20228;-61
2023/04/04 07:26:33;;;;;;;2.43;1.80;;;20.10;19.00;;;;;;6250748;28;20235;-61
2023/04/04 07:29:37;;;;;;;4.20;2.77;;;21.10;18.40;;;;;;6250834;28;20236;-61
2023/04/04 07:32:40;;;;;;;2.60;2.40;;;22.10;17.60;;;;;;6250923;28;20251;-62
2023/04/04 07:35:44;;;;;;;2.80;2.47;;;22.20;17.30;;;;;;6250206;28;20374;-61
2023/04/04 07:38:48;;;;;;;3.00;2.70;;;22.10;16.30;;;;;;6253052;28;20243;-61
2023/04/04 07:41:51;;;;;;;3.30;2.50;;;22.70;16.40;;;;;;6252100;28;20680;-62
2023/04/04 07:44:54;;;;;;;3.27;2.93;;;23.70;15.70;;;;;;6250843;28;20235;-61
2023/04/04 07:47:58;;;;;;;3.00;2.70;;;24.60;15.10;;;;;;6250436;28;20227;-61
2023/04/04 07:51:04;;;;;;;3.43;2.87;;;25.40;14.90;;;;;;6249717;28;20680;-62
2023/04/04 07:54:07;;;;;;;2.33;2.13;;;26.30;13.90;;;;;;6249894;28;20228;-62
2023/04/04 07:57:11;;;;;;;2.83;2.63;;;25.50;13.50;;;;;;6272032;28;20228;-64
2023/04/04 08:00:16;;;;;;;9.60;3.30;;;24.90;14.40;;;;;;6250002;28;20621;-63
2023/04/04 08:03:19;;;;;;;3.40;3.10;;;25.50;14.00;;;;;;6251220;28;20184;-65
2023/04/04 08:06:24;;;;;;;3.37;3.07;;;26.00;12.70;;;;;;6274810;28;20309;-63
2023/04/04 08:09:30;;;;;;;5.97;3.07;;;25.30;13.10;;;;;;6271912;28;20203;-63
2023/04/04 08:12:33;;;;;;;3.47;3.17;;;25.10;12.90;;;;;;6249677;28;20228;-64
2023/04/04 08:15:36;;;;;;;3.83;3.43;;;25.30;13.20;;;;;;6249832;28;20236;-64
2023/04/04 08:18:39;;;;;;;3.00;2.80;;;25.90;13.00;;;;;;6249811;28;20313;-63
2023/04/04 08:21:44;;;;;;;3.47;3.20;;;26.20;12.10;;;;;;6254404;28;20238;-62
2023/04/04 08:24:47;;;;;;;2.90;2.30;;;27.00;11.70;;;;;;6251032;28;20230;-64
2023/04/04 08:27:51;;;;;;;3.10;2.83;;;26.60;11.60;;;;;;6249869;28;20223;-64
2023/04/04 08:30:54;;;;;;;2.47;2.27;;;27.80;11.40;;;;;;6255312;28;20231;-64
2023/04/04 08:33:57;;;;;;;3.13;2.73;;;29.00;11.10;;;;;;6274474;28;20234;-63
2023/04/04 08:37:02;;;;;;;3.57;3.27;;;30.00;10.80;;;;;;6266271;28;20231;-62
2023/04/04 08:40:06;;;;;;;2.97;2.77;;;31.10;9.70;;;;;;6248432;28;20220;-62
2023/04/04 08:43:12;;;;;;;2.77;2.57;;;31.40;9.10;;;;;;6247815;28;20227;-62
2023/04/04 08:46:16;;;;;;;2.37;2.17;;;29.90;9.10;;;;;;6249401;28;20258;-61
2023/04/04 08:49:21;;;;;;;3.37;2.53;;;29.00;9.00;;;;;;6249672;28;20227;-61
2023/04/04 08:52:28;;;;;;;2.73;2.53;;;29.10;9.90;;;;;;6240315;28;20242;-61
2023/04/04 08:55:31;;;;;;;2.92;2.72;;;31.40;9.70;;;;;;6247995;28;20802;-62
2023/04/04 08:58:37;;;;;;;3.83;3.20;;;32.00;8.60;;;;;;6248927;28;20310;-63
2023/04/04 09:01:41;;;;;;;4.10;2.50;;;32.20;8.10;;;;;;6249655;28;20310;-63
2023/04/04 09:04:45;;;;;;;2.75;2.55;;;33.20;7.70;;;;;;6249011;28;20228;-63
2023/04/04 09:08:07;;;;;;;2.40;2.10;;;34.00;7.10;;;;;;6248718;28;20650;-62
2023/04/04 09:11:11;;;;;;;2.67;2.47;;;35.90;6.90;;;;;;6248967;28;20246;-63
2023/04/04 09:14:15;;;;;;;4.82;2.03;;;33.50;6.30;;;;;;6249206;28;20231;-64
2023/04/04 09:17:18;;;;;;;2.80;2.30;;;33.30;6.50;;;;;;6249038;28;20239;-62
2023/04/04 09:20:37;;;;;;;4.25;2.65;;;33.30;6.70;;;;;;6249001;28;20706;-63
2023/04/04 09:23:43;;;;;;;2.50;2.30;;;33.40;6.90;;;;;;6249307;28;20322;-63
2023/04/04 09:26:51;;;;;;;4.88;2.40;;;34.20;7.00;;;;;;6248517;28;20232;-62
2023/04/04 09:29:55;;;;;;;2.90;2.38;;;33.50;6.40;;;;;;6248922;28;20254;-62
2023/04/04 09:33:01;;;;;;;2.70;2.33;;;34.70;5.90;;;;;;6249788;28;20220;-63
2023/04/04 09:36:08;;;;;;;3.90;2.63;;;36.30;5.60;;;;;;6252794;28;20386;-64
2023/04/04 09:39:15;;;;;;;3.40;2.22;;;37.40;5.60;;;;;;6270180;28;20192;-64
2023/04/04 09:42:19;;;;;;;2.60;2.25;;;37.60;5.20;;;;;;6253934;28;20196;-64
2023/04/04 09:45:25;;;;;;;2.40;1.85;;;37.20;4.70;;;;;;6274536;28;20223;-64
2023/04/04 09:48:35;;;;;;;2.28;2.08;;;36.50;4.40;;;;;;6250721;28;20239;-63
2023/04/04 09:51:40;;;;;;;3.45;2.05;;;35.10;4.90;;;;;;6252796;28;20231;-65
2023/04/04 09:54:54;;;;;;;2.13;1.83;;;35.80;4.90;;;;;;6224067;28;20322;-64
2023/04/04 09:58:01;;;;;;;2.25;2.05;;;36.10;5.10;;;;;;6249147;28;20232;-64
2023/04/04 10:01:08;;;;;;;2.55;1.90;;;35.40;5.80;;;;;;6251791;28;20253;-65
2023/04/04 10:04:13;;;;;;;3.13;2.83;;;33.80;5.50;;;;;;6252119;28;20215;-64
2023/04/04 10:07:16;;;;;;;2.53;2.20;;;32.80;5.80;;;;;;6250135;28;20227;-63
2023/04/04 10:10:21;;;;;;;3.08;2.47;;;30.80;6.50;;;;;;6251183;28;20231;-62
2023/04/04 10:13:27;;;;;;;2.23;2.03;;;28.20;8.80;;;;;;6250868;28;20672;-63
2023/04/04 10:16:33;;;;;;;2.70;2.20;;;26.30;7.70;;;;;;6251318;28;20578;-62
2023/04/04 10:19:38;;;;;;;2.87;2.50;;;24.30;8.90;;;;;;6251923;28;20282;-61
2023/04/04 10:22:44;;;;;;;2.57;1.90;;;22.50;9.30;;;;;;6251804;28;20236;-62
2023/04/04 10:25:48;;;;;;;3.43;2.13;;;21.40;9.30;;;;;;6251766;28;20242;-61
2023/04/04 10:28:52;;;;;;;2.23;2.03;;;20.60;11.30;;;;;;6251478;28;20942;-62
2023/04/04 10:32:02;;;;;;;1.90;1.80;;;19.80;11.90;;;;;;6251377;28;20228;-62
2023/04/04 10:35:09;;;;;;;2.53;1.80;;;18.80;11.40;;;;;;6251389;28;20232;-62
2023/04/04 10:38:13;;;;;;;3.90;2.47;;;17.80;11.60;;;;;;6254854;28;20258;-62
2023/04/04 10:41:19;;;;;;;2.00;1.90;;;17.10;12.50;;;;;;6256073;28;20490;-62
2023/04/04 10:44:28;;;;;;;2.30;1.97;;;16.70;14.70;;;;;;6250987;28;20478;-62
2023/04/04 10:47:32;;;;;;;2.50;2.07;;;16.40;14.90;;;;;;6251402;28;20475;-62
2023/04/04 10:50:36;;;;;;;2.57;2.37;;;16.20;14.30;;;;;;6250435;28;20966;-62
2023/04/04 10:53:40;;;;;;;2.83;1.83;;;16.10;14.70;;;;;;6272155;28;20478;-61
2023/04/04 10:56:46;;;;;;;2.17;1.97;;;15.50;15.30;;;;;;6275230;28;20486;-62
2023/04/04 10:59:56;;;;;;;2.00;1.80;;;15.00;14.80;;;;;;6249496;28;20477;-62
2023/04/04 11:03:01;;;;;;;2.07;1.80;;;15.10;15.10;;;;;;6246333;28;20486;-62
2023/04/04 11:06:14;;;;;;;2.70;2.10;;;15.00;15.60;;;;;;6250239;28;20471;-62
2023/04/04 11:09:50;;;;;;;2.20;2.00;;;15.00;17.20;;;;;;6251644;28;20435;-62
2023/04/04 11:12:57;;;;;;;3.50;1.63;;;14.70;15.30;;;;;;6275456;28;20524;-61
2023/04/04 11:16:20;;;;;;;2.57;1.60;;;14.50;15.40;;;;;;6264435;28;20464;-61
2023/04/04 11:19:24;;;;;;;3.50;1.90;;;14.50;16.00;;;;;;6248711;28;20507;-61
2023/04/04 11:22:27;;;;;;;3.30;1.90;;;14.60;15.50;;;;;;6247176;28;20947;-62
2023/04/04 11:25:41;;;;;;;5.50;2.10;;;14.40;15.10;;;;;;6249933;28;20486;-61
2023/04/04 11:28:47;;;;;;;2.57;2.37;;;14.40;14.60;;;;;;6248088;28;20471;-62
2023/04/04 11:31:51;;;;;;;3.93;2.10;;;14.20;15.20;;;;;;6264049;28;20962;-62
2023/04/04 11:34:57;;;;;;;2.50;1.97;;;13.80;14.50;;;;;;6266945;28;20482;-62
2023/04/04 11:38:02;;;;;;;1.87;1.77;;;13.50;16.80;;;;;;6265062;28;20986;-62
2023/04/04 11:41:09;;;;;;;2.10;1.73;;;13.50;15.90;;;;;;6265801;28;20466;-62
2023/04/04 11:44:15;;;;;;;2.60;1.80;;;13.50;15.90;;;;;;6274632;28;20477;-62
2023/04/04 11:47:20;;;;;;;2.50;2.07;;;13.60;16.00;;;;;;6274488;28;20482;-62
2023/04/04 11:50:24;;;;;;;2.17;1.90;;;13.90;16.00;;;;;;6274625;28;20491;-61
2023/04/04 11:53:31;;;;;;;1.73;1.63;;;14.30;16.10;;;;;;6274549;28;20524;-62
2023/04/04 11:56:36;;;;;;;1.60;1.50;;;14.60;15.30;;;;;;6273188;28;20993;-61
2023/04/04 11:59:41;;;;;;;2.33;2.00;;;14.70;14.90;;;;;;6253846;28;20475;-61
2023/04/04 12:02:44;;;;;;;2.37;2.17;;;14.80;14.90;;;;;;6249313;28;20467;-62
2023/04/04 12:05:49;;;;;;;1.67;1.57;;;14.80;14.80;;;;;;6249252;28;20493;-61
2023/04/04 12:08:53;;;;;;;1.77;1.60;;;14.70;14.60;;;;;;6271132;28;20496;-61
2023/04/04 12:11:57;;;;;;;2.40;1.50;;;14.60;15.00;;;;;;6274262;28;20474;-62
2023/04/04 12:15:02;;;;;;;1.97;1.77;;;14.50;14.70;;;;;;6250785;28;20489;-61
2023/04/04 12:18:22;;;;;;;2.30;1.60;;;14.20;14.80;;;;;;6273240;28;20461;-61
2023/04/04 12:21:26;;;;;;;2.40;1.70;;;14.20;13.60;;;;;;6250029;28;20511;-61
2023/04/04 12:24:29;;;;;;;1.60;1.50;;;14.30;14.20;;;;;;6249348;28;20450;-61
2023/04/04 12:27:33;;;;;;;2.23;1.80;;;14.40;16.10;;;;;;6249643;28;20478;-60
2023/04/04 12:30:38;;;;;;;1.50;1.17;;;14.50;16.00;;;;;;6249270;28;20463;-61
2023/04/04 12:33:42;;;;;;;1.40;1.30;;;14.60;15.90;;;;;;6249270;28;20512;-61
2023/04/04 12:36:47;;;;;;;1.73;1.47;;;14.70;15.60;;;;;;6248731;28;20470;-61
2023/04/04 12:39:51;;;;;;;2.87;1.87;;;15.10;14.30;;;;;;6249595;28;20474;-61
2023/04/04 12:42:55;;;;;;;2.70;1.93;;;15.20;14.90;;;;;;6249531;28;20475;-61
2023/04/04 12:46:00;;;;;;;2.33;2.10;;;15.20;14.70;;;;;;6248876;28;20479;-61
2023/04/04 12:49:05;;;;;;;1.73;1.60;;;15.20;15.00;;;;;;6249239;28;20486;-60
2023/04/04 12:52:18;;;;;;;1.70;1.60;;;15.00;14.20;;;;;;6248956;28;20951;-61
2023/04/04 12:55:23;;;;;;;2.20;1.60;;;15.00;14.20;;;;;;6247292;28;20483;-62
2023/04/04 12:58:27;;;;;;;6.50;2.90;;;14.90;14.40;;;;;;6250371;28;20467;-61
2023/04/04 13:01:32;;;;;;;2.20;1.60;;;14.80;14.10;;;;;;6249697;28;20470;-63
2023/04/04 13:04:36;;;;;;;2.00;1.90;;;14.80;14.30;;;;;;6248709;28;20493;-63
2023/04/04 13:07:42;;;;;;;1.53;1.43;;;14.90;14.60;;;;;;6243264;28;20478;-62
2023/04/04 13:11:01;;;;;;;3.10;2.03;;;15.00;13.60;;;;;;6253432;28;20471;-62
2023/04/04 13:14:04;;;;;;;1.83;1.73;;;15.00;14.20;;;;;;6253942;28;20962;-61
2023/04/04 13:17:09;;;;;;;2.10;1.70;;;14.70;13.70;;;;;;6253704;28;20466;-62
2023/04/04 13:20:14;;;;;;;1.23;1.13;;;14.30;14.20;;;;;;6253076;28;20812;-61
2023/04/04 13:23:18;;;;;;;1.60;1.50;;;14.40;15.20;;;;;;6250440;28;20471;-62
2023/04/04 13:26:22;;;;;;;1.70;1.60;;;13.90;14.10;;;;;;6253522;28;20474;-62
2023/04/04 13:29:25;;;;;;;1.53;1.43;;;13.60;14.90;;;;;;6253739;28;20466;-61
2023/04/04 13:32:30;;;;;;;1.77;1.47;;;13.60;15.60;;;;;;6253720;28;20866;-63
2023/04/04 13:35:33;;;;;;;1.50;1.37;;;13.60;15.00;;;;;;6252950;28;20616;-62
2023/04/04 13:38:37;;;;;;;1.70;1.50;;;13.50;14.30;;;;;;6251848;28;20478;-62
2023/04/04 13:41:40;;;;;;;1.70;1.50;;;13.30;14.30;;;;;;6252607;28;20981;-62
2023/04/04 13:44:43;;;;;;;2.10;1.90;;;13.10;14.30;;;;;;6252287;28;20777;-62
2023/04/04 13:47:48;;;;;;;2.00;1.80;;;13.10;14.50;;;;;;6252147;28;20470;-62
2023/04/04 13:50:52;;;;;;;1.90;1.80;;;13.10;15.20;;;;;;6252305;28;20499;-62
2023/04/04 13:53:55;;;;;;;3.53;1.80;;;12.90;15.60;;;;;;6252776;28;20955;-62
2023/04/04 13:56:59;;;;;;;1.70;1.60;;;12.90;15.70;;;;;;6251638;28;20847;-63
2023/04/04 14:00:03;;;;;;;2.70;1.60;;;13.00;15.00;;;;;;6251904;28;20478;-62
2023/04/04 14:03:08;;;;;;;2.57;2.10;;;13.00;15.90;;;;;;6250100;28;20474;-61
2023/04/04 14:06:12;;;;;;;1.93;1.83;;;13.10;17.00;;;;;;6277392;28;20451;-62
2023/04/04 14:09:15;;;;;;;2.23;1.63;;;13.20;16.90;;;;;;6244760;28;20443;-62
2023/04/04 14:12:18;;;;;;;2.60;1.87;;;13.20;16.60;;;;;;6252266;28;20458;-62
2023/04/04 14:15:23;;;;;;;1.70;1.60;;;13.10;16.80;;;;;;6250914;28;20539;-63
2023/04/04 14:18:27;;;;;;;1.63;1.40;;;13.10;16.00;;;;;;6246134;28;20475;-63
2023/04/04 14:21:30;;;;;;;1.63;1.53;;;13.10;15.80;;;;;;6251880;28;20447;-63
2023/04/04 14:24:34;;;;;;;1.90;1.80;;;12.90;15.40;;;;;;6252728;28;20938;-63
2023/04/04 14:27:37;;;;;;;2.23;1.60;;;12.70;15.90;;;;;;6251441;28;20470;-63
2023/04/04 14:30:40;;;;;;;3.03;1.83;;;12.60;15.90;;;;;;6251561;28;20474;-63
2023/04/04 14:33:44;;;;;;;2.07;1.83;;;12.60;16.00;;;;;;6252101;28;20473;-63
2023/04/04 14:36:48;;;;;;;3.13;1.70;;;12.60;16.00;;;;;;6251471;28;20477;-62
2023/04/04 14:39:51;;;;;;;1.80;1.70;;;12.40;15.70;;;;;;6251962;28;20498;-63
2023/04/04 14:42:55;;;;;;;1.67;1.57;;;12.20;15.00;;;;;;6254864;28;20474;-62
2023/04/04 14:45:58;;;;;;;1.70;1.60;;;12.00;15.80;;;;;;6253967;28;20486;-63
2023/04/04 14:49:05;;;;;;;3.07;1.80;;;12.00;16.10;;;;;;6253728;28;20467;-63
2023/04/04 14:52:08;;;;;;;3.57;1.93;;;11.90;16.60;;;;;;6253945;28;20962;-63
2023/04/04 14:55:11;;;;;;;5.03;1.90;;;11.90;17.00;;;;;;6252646;28;20808;-63
2023/04/04 14:58:15;;;;;;;2.00;1.67;;;11.80;16.80;;;;;;6252336;28;20645;-62
2023/04/04 15:01:20;;;;;;;4.10;2.17;;;11.50;16.50;;;;;;6251995;28;20470;-62
2023/04/04 15:04:25;;;;;;;2.50;1.70;;;11.30;16.20;;;;;;6251246;28;20475;-61
2023/04/04 15:07:28;;;;;;;2.20;1.80;;;11.20;16.70;;;;;;6252031;28;20475;-62
2023/04/04 15:10:31;;;;;;;1.70;1.60;;;11.20;17.20;;;;;;6251283;28;20486;-62
2023/04/04 15:13:35;;;;;;;1.60;1.30;;;11.30;16.60;;;;;;6251298;28;20471;-63
2023/04/04 15:16:38;;;;;;;2.60;1.90;;;11.20;16.70;;;;;;6251063;28;20475;-62
2023/04/04 15:19:42;;;;;;;6.10;2.60;;;11.00;17.30;;;;;;6250805;28;20462;-62
2023/04/04 15:22:46;;;;;;;2.90;2.27;;;11.00;17.50;;;;;;6257823;28;21030;-62
2023/04/04 15:25:49;;;;;;;2.73;1.93;;;11.00;18.30;;;;;;6255081;28;20863;-62
2023/04/04 15:28:52;;;;;;;1.80;1.70;;;11.10;18.60;;;;;;6251078;28;20812;-61
2023/04/04 15:31:55;;;;;;;1.80;1.70;;;11.20;18.10;;;;;;6250795;28;20497;-62
2023/04/04 15:35:02;;;;;;;3.20;1.73;;;11.20;17.50;;;;;;6249974;28;20773;-61
2023/04/04 15:38:05;;;;;;;4.13;2.40;;;11.30;17.50;;;;;;6249150;28;20814;-61
2023/04/04 15:41:09;;;;;;;2.60;1.70;;;11.30;18.00;;;;;;6249725;28;20470;-64
2023/04/04 15:44:12;;;;;;;1.73;1.63;;;11.40;18.70;;;;;;6248975;28;20537;-62
2023/04/04 15:47:16;;;;;;;3.50;1.83;;;11.40;19.10;;;;;;6249942;28;20475;-61
2023/04/04 15:50:21;;;;;;;2.43;1.53;;;11.40;18.60;;;;;;6250190;28;20474;-62
2023/04/04 15:53:24;;;;;;;2.17;1.80;;;11.40;18.30;;;;;;6250420;28;20475;-63
2023/04/04 15:56:27;;;;;;;3.80;2.10;;;11.20;18.30;;;;;;6249908;28;20501;-62
2023/04/04 15:59:32;;;;;;;2.10;1.93;;;11.00;18.60;;;;;;6249723;28;20943;-61
2023/04/04 16:02:35;;;;;;;2.60;1.77;;;10.90;19.00;;;;;;6249832;28;20486;-62
2023/04/04 16:05:40;;;;;;;4.50;2.33;;;11.00;19.30;;;;;;6249571;28;20471;-63
2023/04/04 16:08:43;;;;;;;3.23;2.13;;;10.80;19.70;;;;;;6249444;28;20998;-62